Strona główna
METAR-TAF:

METAR-TAF

Lotnisko :

Port lotniczy Hurghada

Hurghada, Egipt

Szerokość geograficzna: 27-09N, Długość geograficzna: 033-43E, wysokość: 16 m

Aktualna obserwacja pogody

Raport powstał 1 godzina i 14 minut temu, godzina 19:00 UTC
Wiatr 10 kt od północny zachód
Temperatura 34°C
Wilgotność 25%
Ciśnienie 1008 hPa
Widzialność 10 km lub więcej
Brak chmur poniżej 1500 m i brak chmur cumulonimbus

METAR: HEGN 201900Z 31010KT CAVOK 34/11 Q1008 NOSIG

czas: 22:14 (20:14 UTC)

Prognoza

Raport powstał 3 godziny i 14 minut temu, godzina 17:00 UTC
Prognoza ważna od 20 godzina 18 UTC do 21 godzina 24 UTC
Wiatr 10 kt od północny zachód w porywach dochodzący do 20 kt
Widzialność 10 km lub więcej
Brak chmur poniżej 1500 m i brak chmur cumulonimbus

TAF: HEGN 201700Z 2018/2124 32010G20KT CAVOK

Obserwacja i prognoza pogody dla ponad 4000 lotnisk (raport METAR i TAF).

Dostępne stacje oznaczono żółtymi i czerwonymi punktami na mapie.

Najedź kursorem aby zobaczyć nazwę stacji.

Kliknij aby zobaczyć obserwacje i prognozy pogody.

Aby zmienić mapę: kliknij na zielony przycisk z czarnym krzyżykiem, aby powiększyć; na zielony przycisk z myślnikiem, aby pomniejszyć; na zielone strzałki, aby przejść do map sąsiednich.


METAR-TAF: